MET'MAP v2.0
soon released !

Expected late october,
this new version will be
more efficient, smarter,
and hosted on a brand new
server x3 powerfull...
...and still free !


Not compatible ?
Try the mobile version !

LOG IN : | Subscribe | Disclaimer | Who is Orbifly ? |
ICAO code :
Legend : VFR Marginal VFR IFR Intensive IFR Very Intensive IFR
Visi :
Ceiling :
>= 8 km
>= 3000ft
5 to 8 km
1000 to 3000 ft
1500m to 5 km
500 to 1000 ft
800 to 1500m
200 to 500 ft
< 800m
< 200 ft

METAR - EGSC Cambridge - 24 Oct 2020 19:42 UTC
Data Sources :     NOAA   


- Airport Elevation : 47 ft
- IATA code : CBG
- No reported NOTAMs.


EGSC - Cambridge

Latest METAR recorded : 2015/08/11 07:50 EGSC 110750Z 29004KT 250V340 9999 FEW025 15/11 Q1020
TAF TAF EGSC
Valid from the 24 at 15:00 until the 24 at 19:00 UTC


241358Z 2415/2419 18020G30KT 9999 SCT025
TEMPO 2415/2419 7000 -RA BKN012
PROB30
TEMPO 2415/2419 21022G35KT 4000 RADZ BKN008

Source NOAA


MET'MAP, your aeronautical weather chart ! - Copyright ORBIFLY December 2007

Programming & Development : Alexandra Zaïnal
Co-Developer : Marc-Olivier Méhu
Technical & hardware support : Manuel Goepfert
Concept & Financing : Baudouin d'Aumeries